Terminal Aerodrome Forecast
Issued by NWS

Home | Current Version | Previous Version | Text Only | Print | Product List | Glossary Off
Versions: 1 2 3 4 5 6 7 8 9 10 11 12 13 14

000
FTUS45 KGGW 242300
TAFSDY
TAF
KSDY 242320Z 2500/2524 30018G28KT P6SM SCT030
     FM250600 30014KT P6SM BKN100
     FM251500 25009KT P6SM BKN090
      AMD LTD TO CLD VIS AND WIND=

USA.gov is the U.S. government's official web portal to all federal, state and local government web resources and services.